AirNav   ProFlight Series 2 Aviation Headset
 
 398 users online  

PN44 Merck/Upper Gwynedd Heliport
North Wales, Pennsylvania, USA

GOING TO NORTH WALES?


FAA INFORMATION EFFECTIVE 18 JUNE 2020

Location

FAA Identifier: PN44
Lat/Long: 40-12-57.1200N 075-16-49.1900W
40-12.952000N 075-16.819833W
40.2158667,-75.2803306
(estimated)
Elevation: 355 ft. / 108 m
Variation: 12W (2000)
Time zone: UTC -4 (UTC -5 during Standard Time)
Zip code: 19454

Heliport Operations

Heliport use: Private use. Permission required prior to landing
Activation date: 06/2001
Control tower: no
ARTCC: NEW YORK CENTER
FSS: WILLIAMSPORT FLIGHT SERVICE STATION
NOTAMs facility: FDC (NOTAM-D service not available)
Attendance: UNATNDD
Wind indicator: lighted
Segmented circle: no
Lights: SS-SR

Heliport Communications

WX AWOS-3 at LOM (5 nm S): 118.925 (215-646-1068)
WX ASOS at DYL (10 nm NE): 118.875 (215-345-0392)
WX AWOS-3 at CKZ (10 nm N): 126.325 (215-257-7291)
WX ASOS at PTW (13 nm W): 119.425 (610-495-0823)
WX AWOS-3 at UKT (14 nm N): 119.475 (215-538-7610)
WX ASOS at PNE (15 nm SE): 121.15 (215-677-0146)
WX AWOS-3T at OQN (19 nm SW): 121.4 ((610) 692-6190)

Nearby radio navigation aids

VOR radial/distance  VOR name  Freq  Var
PTWr101/12.8POTTSTOWN VORTAC116.5009W
ARDr272/17.2YARDLEY VOR/DME108.2010W
MXEr054/25.3MODENA VORTAC113.2009W
ETXr149/28.6EAST TEXAS VOR/DME110.2009W
FJCr175/31.7ALLENTOWN VORTAC117.5010W
SBJr238/33.0SOLBERG VOR/DME112.9010W
GXUr304/33.7MC GUIRE VORTAC110.6012W
OODr012/34.8WOODSTOWN VORTAC112.8010W
DQOr035/35.6DUPONT VORTAC114.0010W
RBVr281/36.0ROBBINSVILLE VORTAC113.8010W

 
NDB name  Hdg/Dist  Freq  Var  ID
AMBLER014/5.427512WING .. -. --.

Heliport Services

Runway Information

Helipad H1

Dimensions: 80 x 80 ft. / 24 x 24 m
Surface: asphalt
Runway edge lights: PERI
Latitude: 40-12.952000N
Longitude: 075-16.819833W
Elevation: 355.0 ft.
Traffic pattern: leftleft

Heliport Ownership and Management from official FAA records

Ownership: Privately-owned
Owner: MERCK SHARP & DOHME CORP.
100 SAM WEINROTH RD
WEST TRENTON, NJ 08628
Phone 609-771-8790
Manager: NADINE FETSKO
100 SAM WEINROTH RD
WEST TRENTON, NJ 08628
Phone (609) 771-8790

Additional Remarks

PPR FOR USE; CALL 609-771-8790 OPTION 1.
NOISE SENSITIVE AREA.
APP HDGS 180/020, DEP HDGS 360/200
FOR CD CTC PHILADELPHIA APCH AT 800-354-9884.

Instrument Procedures

There are no published instrument procedures at PN44.

Some nearby airports with instrument procedures:

KLOM - Wings Field Airport (5 nm S)
N10 - Perkiomen Valley Airport (7 nm W)
KDYL - Doylestown Airport (10 nm NE)
KCKZ - Pennridge Airport (10 nm N)
KPTW - Heritage Field Airport (13 nm W)
KUKT - Quakertown Airport (14 nm N)
KPNE - Northeast Philadelphia Airport (15 nm SE)
N47 - Pottstown Municipal Airport (18 nm W)
KOQN - Brandywine Regional Airport (19 nm SW)
 
Loc | Ops | Rwys | IFR | FBO | Links
Com | Nav | Svcs | Stats | Notes
Area around PN44 (Merck/Upper Gwynedd Heliport)
 
Road maps at: MapQuest Bing Google
 
Aerial photo
No photo
 
Sectional chart

 
Airport distance calculator
Flying to Merck/Upper Gwynedd Heliport? Find the distance to fly.

From to PN44

Sunrise and sunset
Times for 05-Jul-2020
 Local
(UTC-4)
 Zulu
(UTC)
Morning civil twilight05:0609:06
Sunrise05:3909:39
Sunset20:3300:33
Evening civil twilight21:0501:05

Current date and time
Zulu (UTC)  05-Jul-2020 05:29:28
Local (UTC-4)  05-Jul-2020 01:29:28
 
METAR
KLOM 
5nm S 
050515Z AUTO 24003KT 10SM CLR 24/21 A2995 RMK AO2 T02350208
KDYL 
10nm NE 
050454Z AUTO 20003KT 10SM FEW110 23/18 A2994 RMK AO2 SLP131 T02280178 403280217
KCKZ 
10nm N 
050515Z AUTO 24003KT 10SM SCT110 22/22 A2996 RMK AO2
KPTW 
12nm W 
050454Z AUTO 00000KT 7SM FEW070 23/21 A2996 RMK AO2 SLP141 T02280206 403060194
KUKT 
14nm N 
050520Z AUTO 21004KT 10SM SCT100 23/21 A2995 RMK A01
KPNE 
14nm SE 
050454Z AUTO 16003KT 6SM HZ CLR 25/22 A2995 RMK AO2 SLP140 T02500217 403390233
KOQN 
19nm SW 
050515Z AUTO 00000KT 10SM CLR 23/21 A2997 RMK AO2
TAF
KPNE 
14nm SE 
042217Z 0422/0518 11005KT P6SM VCSH SCT035 BKN080 FM050000 VRB03KT P6SM SCT080 FM050900 VRB02KT 6SM BR SCT070 FM051200 VRB02KT P6SM SCT070 FM051400 32005KT P6SM FEW100
NOTAMs
Click for the latest NOTAMs
NOTAMs are issued by the DoD/FAA and will open in a separate window not controlled by AirNav.

 

 
 

Would you like to see your business listed on this page?

 If your business provides an interesting product or service to pilots, flight crews, aircraft, or users of the Merck/Upper Gwynedd Heliport, you should consider listing it here.  To start the listing process, click on the button below
 
Add a business
 

Other Pages about Merck/Upper Gwynedd Heliport

Update a link
 
Copyright © AirNav, LLC. All rights reserved. Privacy Policy  Contact